Impacts TAF Board
For situational awareness. Not to be used for flight planning purposes.
IDs:

KCLT - Charlotte/Douglas In, NC, US

Issued at 2338 UTC 16 Jul 2019
Updated at 0050 UTC 17 Jul 2019
Potential Impact None Slight Moderate High
Time<<17/13Z 17/14Z 17/15Z 17/16Z 17/17Z 17/18Z 17/19Z 17/20Z 17/21Z 17/22Z 17/23Z 18/00Z 18/01Z>>
Type PRVL PRVL PRVL PRVL PRVL PRVL PRVL PRVL PRVL PRVL PRVL PRVL PRVL
VIS >6 >6 >6 >6 >6 >6 >6 >6 >6 >6 >6 >6 >6
CIG -- -- -- -- -- -- -- -- -- -- 250 250 250
Cover SCT SCT SCT SCT SCT SCT SCT SCT SCT SCT BKN BKN BKN
FltCat VFR VFR VFR VFR VFR VFR VFR VFR VFR VFR VFR VFR VFR
WX -- -- -- -- -- -- -- -- -- -- -- -- --
WDir VRB 230 230 230 230 230 230 230 230 230 250 250 250
WSpd 0 6 6 6 6 12 12 12 12 12 7 7 7
WGst -- -- -- -- -- 19 19 19 19 19 -- -- --
Raw TAF
KCLT 162338Z 1700/1806 21006KT P6SM FEW070 BKN250
  FM170400 00000KT P6SM SCT250
  FM171400 23006KT P6SM SCT050
  FM171800 23012G19KT P6SM SCT060
  FM172300 25007KT P6SM BKN250


METAR Board
Radar Display
Forecast Discussion
For situational awareness. Not to be used for flight planning purposes.